Time;durP1;ratioP1;P1;durP2;ratioP2;P2;SDS_P1;SDS_P2;PMS_P1;PMS_P2;Temp;Humidity;BMP_temperature;BMP_pressure;BME280_temperature;BME280_humidity;BME280_pressure;Samples;Min_cycle;Max_cycle;Signal;HPM_P1;HPM_P2
2022/08/05 00:05:48;;;;;;;8.40;6.00;;;;;;;23.08;75.51;100483.91;679910;1275;139126;-82
2022/08/05 00:21:13;;;;;;;7.90;5.20;;;;;;;22.94;75.35;100478.62;679848;1277;139222;-83
2022/08/05 00:36:16;;;;;;;6.30;5.20;;;;;;;22.80;74.72;100458.97;679959;1276;138618;-83
2022/08/05 00:51:39;;;;;;;5.90;5.10;;;;;;;22.61;74.89;100454.16;680081;1277;138091;-83
2022/08/05 01:06:54;;;;;;;8.40;5.10;;;;;;;22.42;74.81;100457.81;679743;1277;138165;-82
2022/08/05 01:22:16;;;;;;;6.90;5.10;;;;;;;22.29;74.99;100450.36;679873;1275;138982;-82
2022/08/05 01:37:52;;;;;;;8.60;5.30;;;;;;;22.01;75.68;100442.14;679988;1276;138969;-83
2022/08/05 01:53:00;;;;;;;13.70;5.90;;;;;;;21.84;76.54;100437.52;680132;1274;139612;-83
2022/08/05 02:08:04;;;;;;;9.30;6.70;;;;;;;21.71;77.48;100432.02;679519;1277;139290;-83
2022/08/05 02:23:10;;;;;;;7.80;4.90;;;;;;;21.55;78.43;100425.52;679207;1277;140670;-83
2022/08/05 02:38:18;;;;;;;9.30;5.90;;;;;;;21.34;78.36;100413.77;679239;1277;140605;-83
2022/08/05 02:53:30;;;;;;;7.80;5.70;;;;;;;21.19;79.10;100402.29;678672;1279;140466;-83
2022/08/05 03:08:42;;;;;;;6.30;4.80;;;;;;;21.18;79.26;100401.35;677284;1278;1203579;-83
2022/08/05 03:23:46;;;;;;;5.40;4.90;;;;;;;21.13;79.89;100389.94;679108;1279;140687;-83
2022/08/05 03:38:50;;;;;;;6.80;5.30;;;;;;;21.21;80.69;100389.17;679429;1277;139642;-83
2022/08/05 03:54:11;;;;;;;7.70;5.90;;;;;;;21.31;81.23;100391.93;679811;1277;140517;-81
2022/08/05 04:09:34;;;;;;;6.80;5.80;;;;;;;21.57;81.68;100393.54;680115;1276;139408;-83
2022/08/05 04:24:39;;;;;;;8.90;5.50;;;;;;;21.88;81.32;100395.29;678986;1279;139879;-82
2022/08/05 04:39:46;;;;;;;10.00;5.80;;;;;;;22.23;81.55;100389.80;679874;1276;140410;-83
2022/08/05 04:54:57;;;;;;;7.40;5.60;;;;;;;22.70;81.61;100383.31;679810;1275;139840;-82
2022/08/05 05:10:16;;;;;;;9.50;6.10;;;;;;;23.14;80.96;100387.04;678320;1277;139703;-82
2022/08/05 05:25:20;;;;;;;6.60;5.60;;;;;;;23.61;80.60;100388.19;679735;1277;140564;-83
2022/08/05 05:40:34;;;;;;;7.40;5.00;;;;;;;24.25;79.81;100385.57;679888;1277;139047;-82
2022/08/05 05:55:38;;;;;;;6.20;4.40;;;;;;;25.18;78.58;100389.02;679863;1277;140666;-82
2022/08/05 06:11:01;;;;;;;5.00;3.60;;;;;;;25.85;76.50;100385.14;679466;1277;139746;-82
2022/08/05 06:26:05;;;;;;;5.00;3.70;;;;;;;26.57;74.04;100385.61;679629;1276;139199;-82
2022/08/05 06:41:23;;;;;;;3.90;3.40;;;;;;;27.35;71.45;100391.94;679743;1277;138581;-81
2022/08/05 06:56:27;;;;;;;6.00;3.70;;;;;;;27.81;68.87;100376.59;678850;1280;139153;-81
2022/08/05 07:11:32;;;;;;;4.40;3.20;;;;;;;28.50;67.91;100368.95;678906;1279;139311;-82
2022/08/05 07:26:43;;;;;;;4.90;4.00;;;;;;;29.16;65.82;100367.90;679783;1277;139421;-81
2022/08/05 07:41:48;;;;;;;3.80;3.30;;;;;;;29.69;63.71;100361.02;679801;1276;139240;-85
2022/08/05 07:57:11;;;;;;;3.10;2.50;;;;;;;30.38;60.72;100362.44;678918;1279;139551;-82
2022/08/05 08:12:35;;;;;;;4.50;2.20;;;;;;;31.15;58.39;100359.60;679742;1277;139791;-82
2022/08/05 08:27:51;;;;;;;4.90;2.60;;;;;;;31.81;56.01;100357.28;679011;1279;139631;-79
2022/08/05 08:42:55;;;;;;;3.70;2.40;;;;;;;31.92;54.01;100346.77;679398;1277;139302;-79
2022/08/05 08:58:02;;;;;;;4.70;2.50;;;;;;;32.25;53.04;100337.65;679468;1277;139742;-77
2022/08/05 09:13:06;;;;;;;4.10;2.50;;;;;;;32.79;53.11;100320.65;679815;1277;139025;-79
2022/08/05 09:28:14;;;;;;;8.50;4.80;;;;;;;33.31;51.30;100320.61;679983;1277;139084;-79
2022/08/05 09:43:33;;;;;;;3.00;2.70;;;;;;;33.39;50.94;100309.85;680150;1277;139052;-79
2022/08/05 09:58:55;;;;;;;4.20;2.60;;;;;;;33.60;50.76;100304.50;679951;1277;139842;-78
2022/08/05 10:14:20;;;;;;;9.90;4.00;;;;;;;34.33;50.02;100287.19;679970;1277;138309;-79
2022/08/05 10:29:26;;;;;;;6.00;3.40;;;;;;;34.66;48.26;100285.20;679965;1276;139733;-78
2022/08/05 10:44:50;;;;;;;5.60;4.70;;;;;;;34.77;46.55;100271.52;679933;1277;139270;-77
2022/08/05 11:00:14;;;;;;;2.70;2.40;;;;;;;34.53;45.67;100266.55;680203;1277;138046;-78
2022/08/05 11:15:39;;;;;;;6.20;3.60;;;;;;;35.11;45.63;100241.62;679592;1275;138489;-77
2022/08/05 11:31:06;;;;;;;4.50;2.50;;;;;;;35.19;45.67;100234.23;679288;1277;145920;-79
2022/08/05 11:46:12;;;;;;;4.50;2.60;;;;;;;35.28;45.59;100232.36;679299;1277;139247;-78
2022/08/05 12:01:20;;;;;;;6.10;3.50;;;;;;;35.73;45.00;100218.63;678845;1278;138212;-79
2022/08/05 12:16:30;;;;;;;5.50;2.60;;;;;;;35.85;44.73;100210.63;679690;1277;139291;-78
2022/08/05 12:31:34;;;;;;;3.10;2.30;;;;;;;36.07;44.90;100194.87;679899;1276;139170;-79
2022/08/05 12:46:53;;;;;;;4.80;2.20;;;;;;;36.13;44.92;100191.29;679889;1277;139732;-80
2022/08/05 13:02:06;;;;;;;3.00;2.30;;;;;;;36.65;45.50;100184.45;680067;1276;139905;-79
2022/08/05 13:17:18;;;;;;;5.50;3.20;;;;;;;36.71;45.62;100168.73;679717;1277;139007;-81
2022/08/05 13:32:27;;;;;;;6.50;3.80;;;;;;;36.20;46.49;100158.48;680159;1275;139348;-80
2022/08/05 13:47:38;;;;;;;3.60;2.70;;;;;;;36.15;46.40;100131.04;679088;1276;138777;-81
2022/08/05 14:03:02;;;;;;;3.60;3.10;;;;;;;36.53;46.51;100120.41;679789;1277;137958;-81
2022/08/05 14:18:06;;;;;;;5.90;3.90;;;;;;;36.37;46.63;100120.04;680027;1276;139302;-81
2022/08/05 14:33:20;;;;;;;5.60;3.20;;;;;;;36.25;47.60;100108.02;679702;1276;139725;-82
2022/08/05 14:48:25;;;;;;;4.00;3.60;;;;;;;40.45;43.58;100110.48;679838;1277;139576;-82
2022/08/05 15:03:35;;;;;;;6.20;2.90;;;;;;;38.73;43.44;100101.49;677930;1277;1311407;-81
2022/08/05 15:18:41;;;;;;;6.60;5.00;;;;;;;36.02;46.17;100097.19;679064;1277;138367;-80
2022/08/05 15:33:49;;;;;;;3.40;3.10;;;;;;;35.49;47.62;100085.38;679577;1277;139145;-82
2022/08/05 15:49:12;;;;;;;11.50;7.30;;;;;;;35.18;47.89;100086.63;679421;1277;138582;-82
2022/08/05 16:04:29;;;;;;;4.70;3.20;;;;;;;34.76;48.79;100084.67;679874;1276;139048;-80
2022/08/05 16:19:32;;;;;;;5.70;3.10;;;;;;;34.34;49.98;100080.13;679731;1277;138786;-82
2022/08/05 16:34:56;;;;;;;3.30;2.90;;;;;;;34.31;50.91;100067.70;680005;1277;139016;-81
2022/08/05 16:50:01;;;;;;;4.40;3.00;;;;;;;33.80;50.48;100055.64;679728;1277;139114;-81
2022/08/05 17:05:06;;;;;;;9.30;4.60;;;;;;;33.24;51.58;100044.71;679413;1277;139406;-81
2022/08/05 17:20:11;;;;;;;10.10;3.50;;;;;;;33.00;52.65;100031.70;679298;1277;138253;-82
2022/08/05 17:35:18;;;;;;;5.90;3.30;;;;;;;32.89;53.04;100029.29;679742;1277;23232;-81
2022/08/05 17:50:25;;;;;;;8.80;4.70;;;;;;;32.38;54.37;100019.79;680088;1275;22616;-81
2022/08/05 18:05:33;;;;;;;6.40;3.80;;;;;;;31.90;55.66;100026.04;679532;1277;23432;-81
2022/08/05 18:20:38;;;;;;;15.30;10.30;;;;;;;31.30;56.77;100032.44;680001;1276;22630;-82
2022/08/05 18:35:41;;;;;;;10.70;7.40;;;;;;;30.74;57.91;100044.42;680176;1277;22562;-82
2022/08/05 19:06:47;;;;;;;7.30;4.00;;;;;;;29.05;61.85;100045.28;679405;1277;22503;-81
2022/08/05 19:21:50;;;;;;;10.60;4.40;;;;;;;28.60;63.18;100040.31;679117;1277;22626;-82
2022/08/05 19:36:54;;;;;;;7.70;5.30;;;;;;;28.31;64.48;100040.98;679595;1277;22551;-81
2022/08/05 19:51:59;;;;;;;6.70;4.90;;;;;;;28.29;65.00;100043.89;679925;1277;23369;-81
2022/08/05 20:07:23;;;;;;;6.80;4.80;;;;;;;27.62;67.05;100032.98;679744;1277;22435;-82
2022/08/05 20:22:46;;;;;;;9.00;5.70;;;;;;;27.46;68.59;100039.54;679842;1277;22476;-81
2022/08/05 20:37:51;;;;;;;8.30;5.70;;;;;;;27.41;69.47;100036.73;679312;1279;23143;-81
2022/08/05 20:53:10;;;;;;;9.10;5.90;;;;;;;27.41;70.40;100035.16;679982;1277;22467;-81
2022/08/05 21:08:34;;;;;;;9.50;7.50;;;;;;;27.34;71.52;100076.48;679784;1277;22456;-82
2022/08/05 21:23:45;;;;;;;17.20;8.70;;;;;;;27.33;71.86;100094.77;679844;1277;22466;-81
2022/08/05 21:38:49;;;;;;;16.70;7.60;;;;;;;27.11;73.14;100127.52;680097;1277;22698;-81
2022/08/05 21:53:52;;;;;;;17.60;10.00;;;;;;;27.09;73.93;100118.98;678679;1279;23143;-81
2022/08/05 22:09:05;;;;;;;17.20;11.50;;;;;;;27.16;74.53;100119.77;679426;1277;23248;-81
2022/08/05 22:39:53;;;;;;;14.40;8.50;;;;;;;26.54;76.85;100159.53;679440;1277;23224;-81
2022/08/05 22:54:58;;;;;;;6.90;5.80;;;;;;;26.23;78.60;100170.95;679441;1277;23191;-82
2022/08/05 23:10:02;;;;;;;6.70;5.20;;;;;;;25.96;81.13;100191.40;679247;1277;22481;-83
2022/08/05 23:25:06;;;;;;;7.30;5.50;;;;;;;25.81;82.33;100190.79;678988;1279;22452;-83
2022/08/05 23:40:13;;;;;;;7.70;5.60;;;;;;;25.56;85.24;100209.94;680390;1277;22430;-82
2022/08/05 23:55:17;;;;;;;7.10;5.40;;;;;;;25.24;88.70;100233.34;680278;1277;22436;-83
